首页
METAR-TAF:

METAR-TAF

机场 :

埃德蒙顿国际机场

埃德蒙顿, 艾伯塔, 加拿大

纬度: 53-18N, 经度: 113-35W, 海拔: 715米

当前天气观测

该预报发布于40分钟前的14:00 UTC
风速3节,风向东转东南
温度 -6°C
湿度 79%
气压 1009 hPa
能見度: 32.2公里
少量云层高于17000英尺
多云层高于23000英尺

METAR: CYEG 071400Z 12003KT 20SM FEW170 BKN230 M06/M09 A2981 RMK AC2CI5 SLP134

时间: 07:40 (14:40 UTC)

预报

该预报发布于3小时和2分钟前的11:38 UTC
预报有效从07日的 12点(UTC)到 08日的 12点(UTC)
风速5节,风向西南
能見度: 10公里
散云层高于24000英尺
从 07日的 1800点(UTC)
风速3节,风向多变
能見度: 10公里
散云层高于20000英尺
从 07日的 2100点(UTC)
风速7节,风向东南
能見度: 10公里
多云层高于20000英尺
成为
从 08日的 01点(UTC)到 08日的 03点(UTC)
风速7节,风向
从 08日的 0300点(UTC)
风速7节,风向
能見度: 10公里
多云层高于12000英尺
多云层高于20000英尺
从 08日的 0900点(UTC)
风速3节,风向多变
能見度: 10公里
多云层高于6000英尺
阴天层高于12000英尺

TAF: CYEG 071138Z 0712/0812 22005KT P6SM SCT240 FM071800 VRB03KT P6SM SCT200 FM072100 14007KT P6SM BKN200 BECMG 0801/0803 19007KT FM080300 19007KT P6SM BKN120 BKN200 FM080900 VRB03KT P6SM BKN060 OVC120 RMK NXT FCST BY 071500Z

超过4000个机场的气象观测和天气预报(METAR&TAF报告)。

可查询的气象台以黄色和红色小点在地图上表示。

将鼠标移到小点上方,可查看气象台名称。

然后点击查看天气观测和预报。

如需切换地图:点击带黑十字的绿色按钮放大地图;点击带横线的绿色按钮缩小地图;或者点击绿色箭头查看邻近地区的地图。


METAR-TAF: